createdAt,value
2022-10-24T00:02:03.566Z,0
2022-10-24T00:03:07.383Z,0
2022-10-24T00:04:10.286Z,0
2022-10-24T00:05:13.375Z,0
2022-10-24T00:07:20.261Z,0
2022-10-24T00:08:22.691Z,0
2022-10-24T00:09:25.739Z,0
2022-10-24T00:10:28.238Z,0
2022-10-24T00:12:34.458Z,0
2022-10-24T00:13:37.477Z,0
2022-10-24T00:15:44.735Z,0
2022-10-24T00:17:50.989Z,0
2022-10-24T00:19:56.290Z,0
2022-10-24T00:20:58.533Z,0
2022-10-24T00:23:03.854Z,0
2022-10-24T00:25:09.273Z,0
2022-10-24T00:27:13.833Z,0
2022-10-24T00:28:17.304Z,0
2022-10-24T00:30:23.679Z,0
2022-10-24T00:32:30.154Z,0
2022-10-24T00:34:37.054Z,0
2022-10-24T00:35:40.131Z,0
2022-10-24T00:37:48.104Z,0
2022-10-24T00:39:53.240Z,0
2022-10-24T00:41:59.300Z,0
2022-10-24T00:43:02.955Z,0
2022-10-24T00:45:08.726Z,0
2022-10-24T00:47:16.226Z,0
2022-10-24T00:48:18.743Z,0
2022-10-24T00:50:24.081Z,0
2022-10-24T00:52:30.658Z,0
2022-10-24T00:53:33.203Z,0
2022-10-24T00:55:38.354Z,0
2022-10-24T00:57:46.484Z,0
2022-10-24T00:59:52.738Z,0
2022-10-24T01:00:56.663Z,0
2022-10-24T01:03:02.984Z,0
2022-10-24T01:05:09.719Z,0
2022-10-24T01:06:12.428Z,0
2022-10-24T01:08:19.519Z,0
2022-10-24T01:09:23.228Z,0
2022-10-24T01:10:26.637Z,0
2022-10-24T01:11:29.178Z,0
2022-10-24T01:13:34.967Z,0
2022-10-24T01:14:37.481Z,0
2022-10-24T01:16:43.372Z,0
2022-10-24T01:18:50.182Z,0
2022-10-24T01:19:52.989Z,0
2022-10-24T01:21:59.201Z,0
2022-10-24T01:24:04.869Z,0
2022-10-24T01:25:08.013Z,0
2022-10-24T01:28:18.090Z,0
2022-10-24T01:30:24.453Z,0
2022-10-24T01:32:30.352Z,0
2022-10-24T01:33:33.729Z,0
2022-10-24T01:35:39.956Z,0
2022-10-24T01:37:47.901Z,0
2022-10-24T01:39:54.336Z,0
2022-10-24T01:40:57.513Z,0
2022-10-24T01:43:04.200Z,0
2022-10-24T01:45:10.657Z,0
2022-10-24T01:46:13.424Z,0
2022-10-24T01:48:20.919Z,0
2022-10-24T01:50:28.753Z,0
2022-10-24T01:52:35.053Z,0
2022-10-24T01:53:37.484Z,0
2022-10-24T01:55:44.268Z,0
2022-10-24T01:57:50.129Z,0
2022-10-24T01:59:55.697Z,0
2022-10-24T02:00:58.941Z,0
2022-10-24T02:03:04.454Z,0
2022-10-24T02:05:11.988Z,0
2022-10-24T02:06:15.661Z,0
2022-10-24T02:08:21.646Z,0
2022-10-24T02:10:27.036Z,0
2022-10-24T02:12:32.492Z,0
2022-10-24T02:13:35.218Z,0
2022-10-24T02:15:41.148Z,0
2022-10-24T02:16:44.209Z,0
2022-10-24T02:17:49.021Z,0
2022-10-24T02:18:52.120Z,0
2022-10-24T02:20:58.949Z,0
2022-10-24T02:22:02.698Z,0
2022-10-24T02:24:08.659Z,0
2022-10-24T02:25:12.324Z,0
2022-10-24T02:26:15.756Z,0
2022-10-24T02:27:18.471Z,0
2022-10-24T02:29:24.434Z,0
2022-10-24T02:31:29.880Z,0
2022-10-24T02:32:32.767Z,0
2022-10-24T02:34:37.716Z,0
2022-10-24T02:36:44.649Z,0
2022-10-24T02:37:48.989Z,0
2022-10-24T02:39:54.897Z,0
2022-10-24T02:42:01.098Z,0
2022-10-24T02:43:04.199Z,0
2022-10-24T02:44:07.644Z,0
2022-10-24T02:45:10.516Z,0
2022-10-24T02:47:17.273Z,0
2022-10-24T02:48:20.060Z,0
2022-10-24T02:50:25.854Z,0
2022-10-24T02:52:32.645Z,0
2022-10-24T02:54:37.703Z,0
2022-10-24T02:55:40.975Z,0
2022-10-24T02:57:45.947Z,0
2022-10-24T02:59:51.853Z,0
2022-10-24T03:01:57.687Z,0
2022-10-24T03:03:00.709Z,0
2022-10-24T03:05:05.825Z,0
2022-10-24T03:07:11.936Z,0
2022-10-24T03:09:19.244Z,0
2022-10-24T03:10:22.033Z,0
2022-10-24T03:12:27.931Z,0
2022-10-24T03:14:33.308Z,0
2022-10-24T03:16:39.664Z,0
2022-10-24T03:17:43.601Z,0
2022-10-24T03:19:49.328Z,0
2022-10-24T03:21:55.478Z,0
2022-10-24T03:24:02.732Z,0
2022-10-24T03:25:06.523Z,0
2022-10-24T03:27:13.648Z,0
2022-10-24T03:29:18.958Z,0
2022-10-24T03:31:24.108Z,0
2022-10-24T03:32:28.343Z,0
2022-10-24T03:34:33.720Z,0
2022-10-24T03:36:39.669Z,0
2022-10-24T03:38:45.854Z,0
2022-10-24T03:39:49.525Z,0
2022-10-24T03:41:55.947Z,0
2022-10-24T03:44:01.737Z,0
2022-10-24T03:46:07.514Z,0
2022-10-24T03:47:10.305Z,0
2022-10-24T03:48:13.368Z,0
2022-10-24T03:49:16.092Z,0
2022-10-24T03:51:22.251Z,0
2022-10-24T03:52:25.956Z,0
2022-10-24T03:53:29.673Z,0
2022-10-24T03:54:33.062Z,0
2022-10-24T03:56:39.430Z,0
2022-10-24T03:57:43.279Z,0
2022-10-24T03:58:45.916Z,0
2022-10-24T03:59:49.066Z,0
2022-10-24T04:01:55.673Z,0
2022-10-24T04:02:58.320Z,0
2022-10-24T04:04:01.478Z,0
2022-10-24T04:05:04.635Z,0
2022-10-24T04:07:11.387Z,0
2022-10-24T04:09:16.783Z,0
2022-10-24T04:10:20.080Z,0
2022-10-24T04:12:26.707Z,0
2022-10-24T04:14:33.003Z,0
2022-10-24T04:16:39.364Z,0
2022-10-24T04:17:43.284Z,0
2022-10-24T04:19:48.910Z,0
2022-10-24T04:21:55.520Z,0
2022-10-24T04:23:06.048Z,0
2022-10-24T04:24:08.834Z,0
2022-10-24T04:25:12.168Z,0
2022-10-24T04:27:18.884Z,0
2022-10-24T04:29:25.787Z,0
2022-10-24T04:31:31.903Z,0
2022-10-24T04:32:35.242Z,0
2022-10-24T04:34:39.790Z,0
2022-10-24T04:36:45.300Z,0
2022-10-24T04:38:51.494Z,0
2022-10-24T04:39:54.929Z,0
2022-10-24T04:42:00.370Z,0
2022-10-24T04:44:07.867Z,0
2022-10-24T04:46:14.007Z,0
2022-10-24T04:47:17.321Z,0
2022-10-24T04:49:22.741Z,0
2022-10-24T04:51:28.322Z,0
2022-10-24T04:53:34.097Z,0
2022-10-24T04:54:36.826Z,0
2022-10-24T04:56:42.306Z,0
2022-10-24T04:58:51.803Z,0
2022-10-24T05:00:58.017Z,0
2022-10-24T05:02:01.515Z,0
2022-10-24T05:03:04.119Z,0
2022-10-24T05:04:07.845Z,0
2022-10-24T05:06:14.050Z,0
2022-10-24T05:07:16.753Z,0
2022-10-24T05:08:19.179Z,0
2022-10-24T05:09:21.770Z,0
2022-10-24T05:11:27.263Z,0
2022-10-24T05:12:30.603Z,0
2022-10-24T05:13:38.601Z,0
2022-10-24T05:14:41.756Z,0
2022-10-24T05:16:48.420Z,0
2022-10-24T05:18:53.692Z,0
2022-10-24T05:19:56.554Z,0
2022-10-24T05:22:11.427Z,0
2022-10-24T05:24:16.648Z,0
2022-10-24T05:26:21.335Z,0
2022-10-24T05:27:24.758Z,0
2022-10-24T05:29:31.787Z,0
2022-10-24T05:31:38.615Z,0
2022-10-24T05:33:44.982Z,0
2022-10-24T05:34:48.451Z,0
2022-10-24T05:36:53.846Z,0
2022-10-24T05:38:58.598Z,0
2022-10-24T05:41:05.309Z,0
2022-10-24T05:42:08.199Z,0
2022-10-24T05:44:13.848Z,0
2022-10-24T05:46:21.183Z,0
2022-10-24T05:47:30.612Z,1
2022-10-24T05:48:33.508Z,1
2022-10-24T05:49:36.618Z,1
2022-10-24T05:50:39.606Z,1
2022-10-24T05:51:43.049Z,1
2022-10-24T05:53:51.849Z,2
2022-10-24T05:55:11.294Z,2
2022-10-24T05:56:18.303Z,2
2022-10-24T05:57:20.737Z,2
2022-10-24T05:58:23.326Z,2
2022-10-24T05:59:26.219Z,3
2022-10-24T06:01:33.117Z,3
2022-10-24T06:02:37.369Z,3
2022-10-24T06:03:41.161Z,4
2022-10-24T06:04:44.806Z,4
2022-10-24T06:06:50.429Z,5
2022-10-24T06:07:53.301Z,5
2022-10-24T06:08:55.560Z,5
2022-10-24T06:09:58.633Z,6
2022-10-24T06:12:04.175Z,7
2022-10-24T06:13:07.249Z,7
2022-10-24T06:14:10.675Z,7
2022-10-24T06:15:13.666Z,8
2022-10-24T06:17:20.151Z,9
2022-10-24T06:19:26.316Z,10
2022-10-24T06:20:30.304Z,10
2022-10-24T06:22:35.859Z,11
2022-10-24T06:24:41.819Z,12
2022-10-24T06:25:45.020Z,12
2022-10-24T06:26:48.363Z,13
2022-10-24T06:27:51.225Z,14
2022-10-24T06:29:57.828Z,15
2022-10-24T06:32:04.379Z,16
2022-10-24T06:33:07.856Z,17
2022-10-24T06:35:13.926Z,18
2022-10-24T06:37:20.093Z,20
2022-10-24T06:39:26.296Z,22
2022-10-24T06:40:29.885Z,23
2022-10-24T06:42:36.053Z,25
2022-10-24T06:44:42.549Z,27
2022-10-24T06:46:49.124Z,28
2022-10-24T06:47:58.038Z,29
2022-10-24T06:49:01.835Z,29
2022-10-24T06:50:05.261Z,30
2022-10-24T06:52:11.221Z,32
2022-10-24T06:54:17.254Z,34
2022-10-24T06:55:20.672Z,35
2022-10-24T06:56:23.453Z,36
2022-10-24T06:57:26.233Z,37
2022-10-24T06:59:32.565Z,38
2022-10-24T07:00:35.460Z,39
2022-10-24T07:01:38.770Z,40
2022-10-24T07:02:41.264Z,40
2022-10-24T07:04:48.606Z,42
2022-10-24T07:05:52.347Z,43
2022-10-24T07:06:55.165Z,44
2022-10-24T07:07:57.897Z,44
2022-10-24T07:10:04.495Z,47
2022-10-24T07:11:07.489Z,51
2022-10-24T07:12:11.065Z,57
2022-10-24T07:13:13.899Z,60
2022-10-24T07:15:20.623Z,58
2022-10-24T07:16:23.339Z,60
2022-10-24T07:17:27.070Z,61
2022-10-24T07:18:29.505Z,62
2022-10-24T07:19:39.066Z,61
2022-10-24T07:20:43.137Z,62
2022-10-24T07:22:50.839Z,63
2022-10-24T07:23:53.115Z,63
2022-10-24T07:25:59.028Z,64
2022-10-24T07:28:05.604Z,65
2022-10-24T07:30:12.673Z,67
2022-10-24T07:31:15.827Z,70
2022-10-24T07:33:21.866Z,72
2022-10-24T07:35:28.111Z,75
2022-10-24T07:36:31.878Z,73
2022-10-24T07:37:35.681Z,73
2022-10-24T07:38:38.886Z,74
2022-10-24T07:40:45.778Z,80
2022-10-24T07:42:52.775Z,84
2022-10-24T07:43:56.225Z,87
2022-10-24T07:46:02.225Z,88
2022-10-24T07:48:08.306Z,94
2022-10-24T07:50:14.452Z,106
2022-10-24T07:51:17.576Z,114
2022-10-24T07:53:24.509Z,157
2022-10-24T07:55:33.354Z,158
2022-10-24T07:57:39.731Z,192
2022-10-24T07:58:42.339Z,203
2022-10-24T08:00:48.614Z,321
2022-10-24T08:02:54.237Z,356
2022-10-24T08:03:56.955Z,349
2022-10-24T08:05:00.113Z,288
2022-10-24T08:06:03.826Z,344
2022-10-24T08:08:42.225Z,388
2022-10-24T08:10:50.007Z,306
2022-10-24T08:12:56.281Z,428
2022-10-24T08:13:59.700Z,466
2022-10-24T08:16:07.482Z,429
2022-10-24T08:18:13.051Z,353
2022-10-24T08:20:19.658Z,364
2022-10-24T08:21:22.722Z,418
2022-10-24T08:22:25.759Z,440
2022-10-24T08:23:29.193Z,369
2022-10-24T08:25:36.415Z,315
2022-10-24T08:26:39.961Z,340
2022-10-24T08:28:46.421Z,395
2022-10-24T08:30:52.013Z,317
2022-10-24T08:31:55.004Z,279
2022-10-24T08:32:57.511Z,252
2022-10-24T08:34:01.212Z,316
2022-10-24T08:36:07.105Z,260
2022-10-24T08:37:10.556Z,255
2022-10-24T08:38:13.781Z,165
2022-10-24T08:39:17.133Z,223
2022-10-24T08:41:24.035Z,173
2022-10-24T08:43:29.695Z,215
2022-10-24T08:44:32.563Z,250
2022-10-24T08:46:38.250Z,395
2022-10-24T08:48:45.757Z,317
2022-10-24T08:49:52.475Z,301
2022-10-24T08:51:59.026Z,370
2022-10-24T08:54:05.332Z,492
2022-10-24T08:55:49.947Z,643
2022-10-24T08:56:54.241Z,464
2022-10-24T08:57:57.997Z,562
2022-10-24T08:59:01.094Z,606
2022-10-24T09:00:03.978Z,642
2022-10-24T09:02:16.517Z,642
2022-10-24T09:03:58.351Z,515
2022-10-24T09:05:01.929Z,597
2022-10-24T09:06:04.991Z,646
2022-10-24T09:08:11.346Z,395
2022-10-24T09:10:18.081Z,463
2022-10-24T09:11:21.545Z,623
2022-10-24T09:13:28.291Z,470
2022-10-24T09:15:34.968Z,472
2022-10-24T09:16:38.431Z,634
2022-10-24T09:18:45.355Z,676
2022-10-24T09:20:53.139Z,646
2022-10-24T09:21:56.212Z,583
2022-10-24T09:22:59.226Z,650
2022-10-24T09:24:02.589Z,593
2022-10-24T09:26:09.835Z,623
2022-10-24T09:27:13.134Z,591
2022-10-24T09:28:16.802Z,713
2022-10-24T09:29:19.893Z,806
2022-10-24T09:31:25.495Z,651
2022-10-24T09:32:28.773Z,417
2022-10-24T09:34:35.003Z,350
2022-10-24T09:36:41.508Z,409
2022-10-24T09:38:53.379Z,341
2022-10-24T09:39:56.196Z,379
2022-10-24T09:42:04.025Z,443
2022-10-24T09:43:07.042Z,438
2022-10-24T09:45:14.180Z,423
2022-10-24T09:47:19.710Z,402
2022-10-24T09:48:31.615Z,385
2022-10-24T09:49:35.245Z,356
2022-10-24T09:50:38.625Z,406
2022-10-24T09:52:45.286Z,437
2022-10-24T09:53:48.647Z,367
2022-10-24T09:55:55.651Z,423
2022-10-24T09:56:58.688Z,405
2022-10-24T09:58:02.147Z,382
2022-10-24T09:59:05.897Z,407
2022-10-24T10:01:14.057Z,498
2022-10-24T10:02:18.223Z,388
2022-10-24T10:03:26.054Z,426
2022-10-24T10:04:29.040Z,502
2022-10-24T10:06:35.662Z,426
2022-10-24T10:07:38.178Z,540
2022-10-24T10:08:41.516Z,620
2022-10-24T10:09:45.509Z,596
2022-10-24T10:12:05.426Z,502
2022-10-24T10:14:11.719Z,700
2022-10-24T10:15:15.218Z,683
2022-10-24T10:17:21.775Z,726
2022-10-24T10:18:24.661Z,662
2022-10-24T10:20:30.410Z,577
2022-10-24T10:22:35.997Z,729
2022-10-24T10:23:39.341Z,789
2022-10-24T10:25:45.312Z,597
2022-10-24T10:27:50.940Z,507
2022-10-24T10:28:54.294Z,490
2022-10-24T10:31:01.240Z,509
2022-10-24T10:33:07.498Z,524
2022-10-24T10:34:10.851Z,497
2022-10-24T10:36:16.519Z,606
2022-10-24T10:37:20.177Z,647
2022-10-24T10:39:26.499Z,622
2022-10-24T10:41:32.644Z,646
2022-10-24T10:42:35.796Z,857
2022-10-24T10:44:42.973Z,836
2022-10-24T10:46:49.278Z,664
2022-10-24T10:47:52.200Z,779
2022-10-24T10:49:56.664Z,771
2022-10-24T10:51:03.251Z,867
2022-10-24T10:52:08.313Z,986
2022-10-24T10:53:11.109Z,780
2022-10-24T10:55:17.134Z,957
2022-10-24T10:56:20.546Z,914
2022-10-24T10:57:29.859Z,835
2022-10-24T10:58:33.282Z,930
2022-10-24T10:59:36.772Z,862
2022-10-24T11:01:44.575Z,834
2022-10-24T11:02:56.694Z,770
2022-10-24T11:03:59.993Z,973
2022-10-24T11:05:03.998Z,965
2022-10-24T11:07:09.938Z,859
2022-10-24T11:08:20.136Z,697
2022-10-24T11:09:23.848Z,912
2022-10-24T11:10:26.368Z,915
2022-10-24T11:12:32.205Z,791
2022-10-24T11:14:39.715Z,693
2022-10-24T11:15:43.083Z,756
2022-10-24T11:16:46.143Z,799
2022-10-24T11:17:50.589Z,920
2022-10-24T11:19:57.554Z,987
2022-10-24T11:21:00.375Z,955
2022-10-24T11:23:06.314Z,919
2022-10-24T11:24:15.810Z,893
2022-10-24T11:25:19.256Z,942
2022-10-24T11:26:22.637Z,998
2022-10-24T11:27:25.352Z,1006
2022-10-24T11:28:28.551Z,994
2022-10-24T11:30:41.519Z,997
2022-10-24T11:31:46.033Z,988
2022-10-24T11:33:53.950Z,981
2022-10-24T11:34:57.640Z,886
2022-10-24T11:36:01.311Z,934
2022-10-24T11:37:04.371Z,982
2022-10-24T11:39:10.891Z,971
2022-10-24T11:40:15.894Z,988
2022-10-24T11:41:19.520Z,964
2022-10-24T11:42:23.163Z,917
2022-10-24T11:44:29.717Z,761
2022-10-24T11:45:33.060Z,742
2022-10-24T11:47:39.169Z,914
2022-10-24T11:49:44.762Z,851
2022-10-24T11:50:48.095Z,842
2022-10-24T11:52:55.268Z,903
2022-10-24T11:55:01.496Z,937
2022-10-24T11:56:05.197Z,939
2022-10-24T11:58:11.669Z,965
2022-10-24T12:00:17.924Z,874
2022-10-24T12:01:21.301Z,212
2022-10-24T12:03:28.255Z,938
2022-10-24T12:05:35.097Z,886
2022-10-24T12:06:38.623Z,881
2022-10-24T12:08:44.996Z,894
2022-10-24T12:09:48.373Z,868
2022-10-24T12:11:55.802Z,869
2022-10-24T12:15:06.070Z,141
2022-10-24T12:17:11.924Z,355
2022-10-24T12:18:15.968Z,415
2022-10-24T12:20:22.173Z,119
2022-10-24T12:22:32.101Z,89
2022-10-24T12:23:35.556Z,80
2022-10-24T12:25:49.155Z,62
2022-10-24T12:27:55.031Z,45
2022-10-24T12:28:57.845Z,66
2022-10-24T12:30:01.574Z,82
2022-10-24T12:31:04.366Z,89
2022-10-24T12:33:10.245Z,101
2022-10-24T12:34:14.015Z,118
2022-10-24T12:35:33.148Z,117
2022-10-24T12:36:36.519Z,127
2022-10-24T12:37:47.970Z,274
2022-10-24T12:38:50.996Z,169
2022-10-24T12:40:00.383Z,266
2022-10-24T12:41:03.454Z,159
2022-10-24T12:42:05.894Z,136
2022-10-24T12:43:09.270Z,184
2022-10-24T12:44:12.064Z,132
2022-10-24T12:45:15.427Z,117
2022-10-24T12:46:25.298Z,94
2022-10-24T12:47:28.729Z,72
2022-10-24T12:48:31.334Z,58
2022-10-24T12:50:37.567Z,47
2022-10-24T12:52:46.223Z,57
2022-10-24T12:53:49.564Z,69
2022-10-24T12:55:55.613Z,52
2022-10-24T12:56:58.326Z,41
2022-10-24T12:58:01.669Z,41
2022-10-24T12:59:04.094Z,50
2022-10-24T13:01:11.236Z,78
2022-10-24T13:02:15.817Z,108
2022-10-24T13:03:19.296Z,117
2022-10-24T13:04:22.362Z,145
2022-10-24T13:06:28.988Z,132
2022-10-24T13:07:32.098Z,117
2022-10-24T13:09:38.403Z,100
2022-10-24T13:10:41.788Z,99
2022-10-24T13:12:48.661Z,101
2022-10-24T13:13:56.754Z,91
2022-10-24T13:15:00.404Z,73
2022-10-24T13:16:03.005Z,72
2022-10-24T13:18:09.902Z,66
2022-10-24T13:20:15.771Z,51
2022-10-24T13:21:19.173Z,44
2022-10-24T13:23:25.683Z,53
2022-10-24T13:25:32.527Z,45
2022-10-24T13:26:35.616Z,41
2022-10-24T13:28:41.824Z,47
2022-10-24T13:30:51.948Z,83
2022-10-24T13:31:54.842Z,125
2022-10-24T13:34:01.444Z,104
2022-10-24T13:36:07.917Z,96
2022-10-24T13:37:11.027Z,51
2022-10-24T13:39:18.233Z,33
2022-10-24T13:41:24.824Z,35
2022-10-24T13:42:27.994Z,35
2022-10-24T13:44:33.458Z,34
2022-10-24T13:47:42.526Z,47
2022-10-24T13:49:49.631Z,59
2022-10-24T13:51:55.530Z,79
2022-10-24T13:52:59.195Z,83
2022-10-24T13:55:05.887Z,78
2022-10-24T13:57:11.738Z,114
2022-10-24T13:58:14.586Z,107
2022-10-24T14:00:20.908Z,102
2022-10-24T14:02:34.509Z,88
2022-10-24T14:03:44.589Z,74
2022-10-24T14:04:47.936Z,66
2022-10-24T14:05:51.008Z,64
2022-10-24T14:07:56.526Z,54
2022-10-24T14:09:09.199Z,53
2022-10-24T14:10:13.243Z,53
2022-10-24T14:11:24.585Z,56
2022-10-24T14:12:27.038Z,59
2022-10-24T14:13:30.053Z,56
2022-10-24T14:15:37.275Z,42
2022-10-24T14:16:40.001Z,37
2022-10-24T14:18:46.533Z,38
2022-10-24T14:21:00.515Z,32
2022-10-24T14:22:03.884Z,26
2022-10-24T14:24:10.413Z,25
2022-10-24T14:26:16.906Z,26
2022-10-24T14:27:20.662Z,28
2022-10-24T14:28:23.758Z,29
2022-10-24T14:29:26.291Z,26
2022-10-24T14:30:37.245Z,23
2022-10-24T14:31:40.696Z,22
2022-10-24T14:32:43.701Z,20
2022-10-24T14:33:47.432Z,21
2022-10-24T14:34:51.265Z,24
2022-10-24T14:36:00.191Z,32
2022-10-24T14:37:03.576Z,42
2022-10-24T14:39:15.140Z,38
2022-10-24T14:40:18.341Z,37
2022-10-24T14:42:26.975Z,35
2022-10-24T14:44:40.334Z,32
2022-10-24T14:45:44.061Z,29
2022-10-24T14:46:47.049Z,27
2022-10-24T14:47:50.541Z,22
2022-10-24T14:49:55.712Z,22
2022-10-24T14:52:01.865Z,23
2022-10-24T14:53:05.221Z,24
2022-10-24T14:55:11.523Z,28
2022-10-24T14:57:17.797Z,25
2022-10-24T14:58:21.544Z,23
2022-10-24T14:59:24.467Z,23
2022-10-24T15:00:27.830Z,23
2022-10-24T15:02:40.334Z,22
2022-10-24T15:03:46.595Z,21
2022-10-24T15:05:53.244Z,24
2022-10-24T15:08:24.743Z,25
2022-10-24T15:10:31.087Z,24
2022-10-24T15:11:34.116Z,25
2022-10-24T15:13:40.836Z,23
2022-10-24T15:15:47.670Z,23
2022-10-24T15:16:51.525Z,23
2022-10-24T15:18:57.558Z,24
2022-10-24T15:21:03.816Z,23
2022-10-24T15:23:10.491Z,23
2022-10-24T15:24:13.902Z,20
2022-10-24T15:26:21.217Z,18
2022-10-24T15:28:27.574Z,19
2022-10-24T15:30:33.994Z,17
2022-10-24T15:31:36.810Z,15
2022-10-24T15:33:42.566Z,14
2022-10-24T15:35:48.701Z,13
2022-10-24T15:36:51.140Z,11
2022-10-24T15:37:53.404Z,11
2022-10-24T15:38:56.476Z,10
2022-10-24T15:41:02.270Z,10
2022-10-24T15:43:07.725Z,7
2022-10-24T15:44:11.763Z,7
2022-10-24T15:46:18.207Z,6
2022-10-24T15:48:24.557Z,7
2022-10-24T15:50:31.637Z,6
2022-10-24T15:51:34.427Z,5
2022-10-24T15:53:39.383Z,4
2022-10-24T15:55:44.684Z,4
2022-10-24T15:56:47.995Z,3
2022-10-24T15:57:50.439Z,3
2022-10-24T15:58:54.514Z,3
2022-10-24T16:01:02.914Z,2
2022-10-24T16:03:10.424Z,2
2022-10-24T16:04:13.435Z,2
2022-10-24T16:05:16.876Z,1
2022-10-24T16:06:19.947Z,1
2022-10-24T16:08:25.986Z,1
2022-10-24T16:09:29.224Z,1
2022-10-24T16:10:32.705Z,1
2022-10-24T16:11:35.764Z,0
2022-10-24T16:13:42.024Z,0
2022-10-24T16:14:45.216Z,0
2022-10-24T16:15:49.204Z,0
2022-10-24T16:16:54.019Z,0
2022-10-24T16:19:01.419Z,0
2022-10-24T16:21:07.259Z,0
2022-10-24T16:22:10.837Z,0
2022-10-24T16:24:17.314Z,0
2022-10-24T16:26:23.433Z,0
2022-10-24T16:28:29.570Z,0
2022-10-24T16:29:33.425Z,0
2022-10-24T16:31:40.405Z,0
2022-10-24T16:33:47.389Z,0
2022-10-24T16:35:53.471Z,0
2022-10-24T16:36:57.851Z,0
2022-10-24T16:39:03.964Z,0
2022-10-24T16:41:10.056Z,0
2022-10-24T16:43:16.078Z,0
2022-10-24T16:44:19.379Z,0
2022-10-24T16:46:26.070Z,0
2022-10-24T16:48:32.786Z,0
2022-10-24T16:50:38.495Z,0
2022-10-24T16:51:45.815Z,0
2022-10-24T16:52:50.131Z,0
2022-10-24T16:53:53.853Z,0
2022-10-24T16:56:00.831Z,0
2022-10-24T16:57:02.790Z,0
2022-10-24T16:58:05.589Z,0
2022-10-24T16:59:17.303Z,0
2022-10-24T17:01:25.217Z,0
2022-10-24T17:03:31.581Z,0
2022-10-24T17:04:36.319Z,0
2022-10-24T17:06:43.004Z,0
2022-10-24T17:08:52.237Z,0
2022-10-24T17:10:59.073Z,0
2022-10-24T17:12:01.872Z,0
2022-10-24T17:13:04.669Z,0
2022-10-24T17:16:15.111Z,0
2022-10-24T17:17:17.971Z,0
2022-10-24T17:18:20.742Z,0
2022-10-24T17:19:23.924Z,0
2022-10-24T17:21:31.035Z,0
2022-10-24T17:23:37.958Z,0
2022-10-24T17:24:41.579Z,0
2022-10-24T17:25:44.930Z,0
2022-10-24T17:26:47.994Z,0
2022-10-24T17:28:54.388Z,0
2022-10-24T17:31:01.278Z,0
2022-10-24T17:32:04.356Z,0
2022-10-24T17:34:10.097Z,0
2022-10-24T17:36:17.664Z,0
2022-10-24T17:37:20.833Z,0
2022-10-24T17:38:24.201Z,0
2022-10-24T17:39:28.141Z,0
2022-10-24T17:41:34.245Z,0
2022-10-24T17:42:37.624Z,0
2022-10-24T17:43:41.086Z,0
2022-10-24T17:44:44.751Z,0
2022-10-24T17:46:59.178Z,0
2022-10-24T17:49:05.546Z,0
2022-10-24T17:50:09.235Z,0
2022-10-24T17:52:15.870Z,0
2022-10-24T17:54:22.004Z,0
2022-10-24T17:55:49.114Z,0
2022-10-24T17:56:52.692Z,0
2022-10-24T17:57:55.211Z,0
2022-10-24T18:00:00.982Z,0
2022-10-24T18:02:08.920Z,0
2022-10-24T18:04:14.672Z,0
2022-10-24T18:05:18.059Z,0
2022-10-24T18:07:25.129Z,0
2022-10-24T18:09:31.259Z,0
2022-10-24T18:11:37.242Z,0
2022-10-24T18:12:40.312Z,0
2022-10-24T18:14:47.048Z,0
2022-10-24T18:16:53.378Z,0
2022-10-24T18:18:58.974Z,0
2022-10-24T18:20:01.218Z,0
2022-10-24T18:22:07.827Z,0
2022-10-24T18:24:15.006Z,0
2022-10-24T18:25:24.904Z,0
2022-10-24T18:26:27.890Z,0
2022-10-24T18:27:31.317Z,0
2022-10-24T18:29:37.582Z,0
2022-10-24T18:31:43.320Z,0
2022-10-24T18:33:52.255Z,0
2022-10-24T18:34:55.517Z,0
2022-10-24T18:35:58.840Z,0
2022-10-24T18:37:02.042Z,0
2022-10-24T18:39:08.986Z,0
2022-10-24T18:40:11.793Z,0
2022-10-24T18:41:15.267Z,0
2022-10-24T18:42:18.353Z,0
2022-10-24T18:44:25.321Z,0
2022-10-24T18:45:29.722Z,0
2022-10-24T18:46:32.857Z,0
2022-10-24T18:47:36.275Z,0
2022-10-24T18:49:41.936Z,0
2022-10-24T18:50:45.071Z,0
2022-10-24T18:51:48.519Z,0
2022-10-24T18:52:51.708Z,0
2022-10-24T18:54:58.273Z,0
2022-10-24T18:56:01.634Z,0
2022-10-24T18:58:06.868Z,0
2022-10-24T19:00:12.118Z,0
2022-10-24T19:02:20.425Z,0
2022-10-24T19:03:23.619Z,0
2022-10-24T19:05:29.278Z,0
2022-10-24T19:07:35.348Z,0
2022-10-24T19:09:41.806Z,0
2022-10-24T19:10:45.272Z,0
2022-10-24T19:12:52.378Z,0
2022-10-24T19:14:58.302Z,0
2022-10-24T19:16:01.147Z,0
2022-10-24T19:17:03.869Z,0
2022-10-24T19:18:06.587Z,0
2022-10-24T19:20:11.973Z,0
2022-10-24T19:21:15.345Z,0
2022-10-24T19:22:18.215Z,0
2022-10-24T19:23:21.376Z,0
2022-10-24T19:25:27.925Z,0
2022-10-24T19:26:31.400Z,0
2022-10-24T19:27:34.494Z,0
2022-10-24T19:28:38.161Z,0
2022-10-24T19:30:44.771Z,0
2022-10-24T19:31:47.943Z,0
2022-10-24T19:32:51.153Z,0
2022-10-24T19:33:53.947Z,0
2022-10-24T19:36:00.112Z,0
2022-10-24T19:38:06.890Z,0
2022-10-24T19:39:09.951Z,0
2022-10-24T19:40:12.507Z,0
2022-10-24T19:41:15.601Z,0
2022-10-24T19:43:21.651Z,0
2022-10-24T19:45:28.254Z,0
2022-10-24T19:46:31.324Z,0
2022-10-24T19:47:34.135Z,0
2022-10-24T19:48:37.202Z,0
2022-10-24T19:50:43.430Z,0
2022-10-24T19:52:48.997Z,0
2022-10-24T19:53:51.756Z,0
2022-10-24T19:55:57.094Z,0
2022-10-24T19:58:04.391Z,0
2022-10-24T20:00:10.447Z,0
2022-10-24T20:01:14.086Z,0
2022-10-24T20:03:20.434Z,0
2022-10-24T20:05:26.044Z,0
2022-10-24T20:07:32.273Z,0
2022-10-24T20:08:35.709Z,0
2022-10-24T20:10:41.205Z,0
2022-10-24T20:12:49.269Z,0
2022-10-24T20:14:55.336Z,0
2022-10-24T20:15:58.415Z,0
2022-10-24T20:18:04.666Z,0
2022-10-24T20:20:11.253Z,0
2022-10-24T20:22:17.512Z,0
2022-10-24T20:23:20.582Z,0
2022-10-24T20:25:26.154Z,0
2022-10-24T20:27:32.243Z,0
2022-10-24T20:28:35.058Z,0
2022-10-24T20:29:38.515Z,0
2022-10-24T20:30:42.257Z,0
2022-10-24T20:32:47.329Z,0
2022-10-24T20:33:50.044Z,0
2022-10-24T20:35:57.095Z,0
2022-10-24T20:38:02.405Z,0
2022-10-24T20:40:07.292Z,0
2022-10-24T20:41:10.184Z,0
2022-10-24T20:43:16.543Z,0
2022-10-24T20:45:25.295Z,0
2022-10-24T20:47:31.648Z,0
2022-10-24T20:48:34.365Z,0
2022-10-24T20:50:39.935Z,0
2022-10-24T20:52:47.892Z,0
2022-10-24T20:54:54.047Z,0
2022-10-24T20:55:57.114Z,0
2022-10-24T20:58:02.588Z,0
2022-10-24T21:00:08.638Z,0
2022-10-24T21:01:12.583Z,0
2022-10-24T21:02:16.825Z,0
2022-10-24T21:03:19.622Z,0
2022-10-24T21:05:25.655Z,0
2022-10-24T21:06:28.753Z,0
2022-10-24T21:07:31.741Z,0
2022-10-24T21:08:34.612Z,0
2022-10-24T21:10:40.397Z,0
2022-10-24T21:11:43.592Z,0
2022-10-24T21:12:50.995Z,0
2022-10-24T21:13:54.300Z,0
2022-10-24T21:16:01.567Z,0
2022-10-24T21:18:07.474Z,0
2022-10-24T21:19:10.349Z,0
2022-10-24T21:21:17.483Z,0
2022-10-24T21:23:22.895Z,0
2022-10-24T21:25:29.020Z,0
2022-10-24T21:26:32.442Z,0
2022-10-24T21:28:37.192Z,0
2022-10-24T21:30:43.590Z,0
2022-10-24T21:31:47.054Z,0
2022-10-24T21:33:53.294Z,0
2022-10-24T21:35:59.326Z,0
2022-10-24T21:38:05.218Z,0
2022-10-24T21:39:08.390Z,0
2022-10-24T21:41:14.638Z,0
2022-10-24T21:43:20.951Z,0
2022-10-24T21:45:26.852Z,0
2022-10-24T21:46:29.817Z,0
2022-10-24T21:48:37.307Z,0
2022-10-24T21:52:51.246Z,0
2022-10-24T21:53:54.970Z,0
2022-10-24T21:56:00.766Z,0
2022-10-24T21:58:06.690Z,0
2022-10-24T21:59:09.880Z,0
2022-10-24T22:00:12.872Z,0
2022-10-24T22:01:17.240Z,0
2022-10-24T22:03:25.723Z,0
2022-10-24T22:05:33.334Z,0
2022-10-24T22:06:36.523Z,0
2022-10-24T22:08:43.420Z,0
2022-10-24T22:10:49.654Z,0
2022-10-24T22:12:55.963Z,0
2022-10-24T22:13:59.300Z,0
2022-10-24T22:16:05.646Z,0
2022-10-24T22:18:12.001Z,0
2022-10-24T22:20:18.702Z,0
2022-10-24T22:21:21.444Z,0
2022-10-24T22:22:25.647Z,0
2022-10-24T22:23:28.457Z,0
2022-10-24T22:25:34.217Z,0
2022-10-24T22:26:37.909Z,0
2022-10-24T22:28:43.676Z,0
2022-10-24T22:30:49.426Z,0
2022-10-24T22:32:56.377Z,0
2022-10-24T22:33:59.890Z,0
2022-10-24T22:36:06.992Z,0
2022-10-24T22:38:12.630Z,0
2022-10-24T22:39:16.103Z,0
2022-10-24T22:41:22.600Z,0
2022-10-24T22:43:42.910Z,0
2022-10-24T22:44:46.769Z,0
2022-10-24T22:45:49.785Z,0
2022-10-24T22:46:52.220Z,0
2022-10-24T22:48:58.260Z,0
2022-10-24T22:51:04.655Z,0
2022-10-24T22:52:08.474Z,0
2022-10-24T22:54:13.826Z,0
2022-10-24T22:56:20.233Z,0
2022-10-24T22:58:26.436Z,0
2022-10-24T22:59:29.635Z,0
2022-10-24T23:01:36.273Z,0
2022-10-24T23:03:43.459Z,0
2022-10-24T23:04:45.955Z,0
2022-10-24T23:06:53.224Z,0
2022-10-24T23:09:00.160Z,0
2022-10-24T23:10:03.810Z,0